PWSweather.com
Personal Weather Stations
Station Observations
KTXNEWBR92
New Braunfels, TX

New Braunfels, TX

Lat: 29.722, Lon: -98.17

Elevation: 850

Station Type:

High Low Average
Temperature 56.3°F13.5°C 36.3°F2.4°C 45.2°F7.3°C
Dew Point 34.9°F1.6°C 29.1°F-1.6°C 32.1°F0.1°C
Winds 6.7 mph 10.8 kmh Calm Calm 1.0 mph ENE1.6 kmh ENE
Wind Gusts 12.3 mph19.8 kmh -- 2.0 mph3.2 kmh
Humidity 91% 40% 61%
Pressure 30.16 in1021.3 mb 30.02 in1016.6 mb -
Precipitation 0.00 in0.0 mm - -
Hour Temp Dew Point Humidity Winds Wind Gusts Pressure Precip Precip Rate Daily Precip Total
12:04 AM 39.7°F4.3°C 32.7°F0.4°C 76% Calm Calm -- 30.04 in1017.3 mb 0.00 in0.0 mm 0.00 in0.0 mm 0.01 in0.3 mm
12:09 AM 39.4°F4.1°C 32.5°F0.3°C 76% Calm Calm -- 30.03 in1016.9 mb 0.00 in0.0 mm 0.00 in0.0 mm 0.01 in0.3 mm
12:14 AM 39.2°F4.0°C 32.5°F0.3°C 77% Calm Calm -- 30.03 in1016.9 mb 0.00 in0.0 mm 0.00 in0.0 mm 0.01 in0.3 mm
12:19 AM 38.8°F3.8°C 32.2°F0.1°C 77% Calm Calm -- 30.03 in1016.9 mb 0.00 in0.0 mm 0.00 in0.0 mm 0.01 in0.3 mm
12:24 AM 38.7°F3.7°C 32.4°F0.2°C 78% Calm Calm -- 30.03 in1016.9 mb 0.00 in0.0 mm 0.00 in0.0 mm 0.01 in0.3 mm
12:29 AM 38.5°F3.6°C 32.9°F0.5°C 80% Calm Calm -- 30.02 in1016.6 mb 0.00 in0.0 mm 0.00 in0.0 mm 0.01 in0.3 mm
12:34 AM 38.3°F3.5°C 32.7°F0.4°C 80% Calm Calm -- 30.03 in1016.9 mb 0.00 in0.0 mm 0.00 in0.0 mm 0.01 in0.3 mm
12:39 AM 38.1°F3.4°C 32.5°F0.3°C 80% Calm Calm -- 30.03 in1016.9 mb 0.00 in0.0 mm 0.00 in0.0 mm 0.01 in0.3 mm
12:44 AM 37.8°F3.2°C 32.5°F0.3°C 81% Calm Calm -- 30.02 in1016.6 mb 0.00 in0.0 mm 0.00 in0.0 mm 0.01 in0.3 mm
12:49 AM 37.4°F3.0°C 32.2°F0.1°C 81% Calm Calm -- 30.04 in1017.3 mb 0.00 in0.0 mm 0.00 in0.0 mm 0.01 in0.3 mm
12:54 AM 37.2°F2.9°C 32.2°F0.1°C 82% Calm Calm -- 30.03 in1016.9 mb 0.00 in0.0 mm 0.00 in0.0 mm 0.01 in0.3 mm
01:04 AM 36.7°F2.6°C 33.4°F0.8°C 88% Calm Calm -- 30.04 in1017.3 mb 0.00 in0.0 mm 0.00 in0.0 mm 0.00 in0.0 mm
01:09 AM 36.5°F2.5°C 33.3°F0.7°C 88% Calm Calm -- 30.03 in1016.9 mb 0.00 in0.0 mm 0.00 in0.0 mm 0.00 in0.0 mm
01:14 AM 36.3°F2.4°C 33.1°F0.6°C 88% Calm Calm -- 30.03 in1016.9 mb 0.00 in0.0 mm 0.00 in0.0 mm 0.00 in0.0 mm
01:19 AM 36.3°F2.4°C 33.4°F0.8°C 89% Calm Calm -- 30.03 in1016.9 mb 0.00 in0.0 mm 0.00 in0.0 mm 0.00 in0.0 mm
01:24 AM 36.3°F2.4°C 33.6°F0.9°C 90% Calm Calm -- 30.03 in1016.9 mb 0.00 in0.0 mm 0.00 in0.0 mm 0.00 in0.0 mm
01:29 AM 36.5°F2.5°C 34.2°F1.2°C 91% Calm Calm -- 30.03 in1016.9 mb 0.00 in0.0 mm 0.00 in0.0 mm 0.00 in0.0 mm
01:34 AM 36.7°F2.6°C 34.3°F1.3°C 91% Calm Calm -- 30.03 in1016.9 mb 0.00 in0.0 mm 0.00 in0.0 mm 0.00 in0.0 mm
01:39 AM 36.9°F2.7°C 34.5°F1.4°C 91% 1.3 mph ENE2.1 kmh ENE 2.5 mph4.0 kmh 30.03 in1016.9 mb 0.00 in0.0 mm 0.00 in0.0 mm 0.00 in0.0 mm
01:44 AM 37.2°F2.9°C 32.0°F0.0°C 81% Calm Calm -- 30.02 in1016.6 mb 0.00 in0.0 mm 0.00 in0.0 mm 0.00 in0.0 mm
01:49 AM 37.6°F3.1°C 31.3°F-0.4°C 78% 0.9 mph N1.4 kmh N 2.5 mph4.0 kmh 30.03 in1016.9 mb 0.00 in0.0 mm 0.00 in0.0 mm 0.00 in0.0 mm
01:54 AM 38.1°F3.4°C 31.6°F-0.2°C 77% Calm Calm -- 30.03 in1016.9 mb 0.00 in0.0 mm 0.00 in0.0 mm 0.00 in0.0 mm
01:59 AM 38.5°F3.6°C 31.6°F-0.2°C 76% Calm Calm -- 30.03 in1016.9 mb 0.00 in0.0 mm 0.00 in0.0 mm 0.00 in0.0 mm
02:04 AM 38.8°F3.8°C 32.0°F0.0°C 76% Calm Calm -- 30.02 in1016.6 mb 0.00 in0.0 mm 0.00 in0.0 mm 0.00 in0.0 mm
02:09 AM 39.0°F3.9°C 32.4°F0.2°C 77% Calm Calm -- 30.03 in1016.9 mb 0.00 in0.0 mm 0.00 in0.0 mm 0.00 in0.0 mm
02:14 AM 39.0°F3.9°C 32.4°F0.2°C 77% Calm Calm -- 30.03 in1016.9 mb 0.00 in0.0 mm 0.00 in0.0 mm 0.00 in0.0 mm
02:19 AM 39.0°F3.9°C 32.2°F0.1°C 76% Calm Calm -- 30.04 in1017.3 mb 0.00 in0.0 mm 0.00 in0.0 mm 0.00 in0.0 mm
02:24 AM 38.8°F3.8°C 32.0°F0.0°C 76% 0.9 mph NE1.4 kmh NE 2.5 mph4.0 kmh 30.04 in1017.3 mb 0.00 in0.0 mm 0.00 in0.0 mm 0.00 in0.0 mm
02:29 AM 38.8°F3.8°C 32.0°F0.0°C 76% 5.1 mph NNE8.2 kmh NNE 7.4 mph11.9 kmh 30.04 in1017.3 mb 0.00 in0.0 mm 0.00 in0.0 mm 0.00 in0.0 mm
02:34 AM 38.8°F3.8°C 32.0°F0.0°C 76% 1.1 mph NNE1.8 kmh NNE 2.5 mph4.0 kmh 30.04 in1017.3 mb 0.00 in0.0 mm 0.00 in0.0 mm 0.00 in0.0 mm
02:39 AM 38.8°F3.8°C 32.0°F0.0°C 76% 1.3 mph ENE2.1 kmh ENE 2.5 mph4.0 kmh 30.04 in1017.3 mb 0.00 in0.0 mm 0.00 in0.0 mm 0.00 in0.0 mm
02:44 AM 38.8°F3.8°C 32.2°F0.1°C 77% 0.2 mph ENE0.3 kmh ENE 2.5 mph4.0 kmh 30.04 in1017.3 mb 0.00 in0.0 mm 0.00 in0.0 mm 0.00 in0.0 mm
02:49 AM 38.8°F3.8°C 32.2°F0.1°C 77% Calm Calm -- 30.04 in1017.3 mb 0.00 in0.0 mm 0.00 in0.0 mm 0.00 in0.0 mm
02:54 AM 38.7°F3.7°C 32.0°F0.0°C 77% Calm Calm -- 30.04 in1017.3 mb 0.00 in0.0 mm 0.00 in0.0 mm 0.00 in0.0 mm
02:59 AM 38.7°F3.7°C 31.8°F-0.1°C 76% Calm Calm -- 30.04 in1017.3 mb 0.00 in0.0 mm 0.00 in0.0 mm 0.00 in0.0 mm
03:04 AM 38.5°F3.6°C 31.6°F-0.2°C 76% Calm Calm -- 30.04 in1017.3 mb 0.00 in0.0 mm 0.00 in0.0 mm 0.00 in0.0 mm
03:09 AM 38.5°F3.6°C 31.3°F-0.4°C 75% 0.4 mph NE0.6 kmh NE 2.5 mph4.0 kmh 30.04 in1017.3 mb 0.00 in0.0 mm 0.00 in0.0 mm 0.00 in0.0 mm
03:14 AM 38.5°F3.6°C 31.3°F-0.4°C 75% 2.0 mph NE3.2 kmh NE 2.5 mph4.0 kmh 30.04 in1017.3 mb 0.00 in0.0 mm 0.00 in0.0 mm 0.00 in0.0 mm
03:19 AM 38.7°F3.7°C 31.5°F-0.3°C 75% 1.1 mph ENE1.8 kmh ENE 2.5 mph4.0 kmh 30.04 in1017.3 mb 0.00 in0.0 mm 0.00 in0.0 mm 0.00 in0.0 mm
03:24 AM 38.8°F3.8°C 31.6°F-0.2°C 75% 0.9 mph ENE1.4 kmh ENE 2.5 mph4.0 kmh 30.04 in1017.3 mb 0.00 in0.0 mm 0.00 in0.0 mm 0.00 in0.0 mm
03:29 AM 38.8°F3.8°C 31.6°F-0.2°C 75% 1.8 mph NNE2.9 kmh NNE 2.5 mph4.0 kmh 30.04 in1017.3 mb 0.00 in0.0 mm 0.00 in0.0 mm 0.00 in0.0 mm
03:34 AM 39.0°F3.9°C 31.5°F-0.3°C 74% 3.6 mph NNE5.8 kmh NNE 4.9 mph7.9 kmh 30.03 in1016.9 mb 0.00 in0.0 mm 0.00 in0.0 mm 0.00 in0.0 mm
03:39 AM 39.2°F4.0°C 31.6°F-0.2°C 74% 1.8 mph NNE2.9 kmh NNE 2.5 mph4.0 kmh 30.04 in1017.3 mb 0.00 in0.0 mm 0.00 in0.0 mm 0.00 in0.0 mm
03:44 AM 39.2°F4.0°C 31.6°F-0.2°C 74% 1.1 mph NNE1.8 kmh NNE 2.5 mph4.0 kmh 30.04 in1017.3 mb 0.00 in0.0 mm 0.00 in0.0 mm 0.00 in0.0 mm
03:49 AM 39.2°F4.0°C 31.3°F-0.4°C 73% 0.2 mph NE0.3 kmh NE 2.5 mph4.0 kmh 30.04 in1017.3 mb 0.00 in0.0 mm 0.00 in0.0 mm 0.00 in0.0 mm
03:54 AM 39.2°F4.0°C 31.3°F-0.4°C 73% Calm Calm -- 30.04 in1017.3 mb 0.00 in0.0 mm 0.00 in0.0 mm 0.00 in0.0 mm
03:59 AM 39.2°F4.0°C 31.6°F-0.2°C 74% Calm Calm -- 30.04 in1017.3 mb 0.00 in0.0 mm 0.00 in0.0 mm 0.00 in0.0 mm
04:04 AM 39.2°F4.0°C 31.6°F-0.2°C 74% Calm Calm -- 30.04 in1017.3 mb 0.00 in0.0 mm 0.00 in0.0 mm 0.00 in0.0 mm
04:09 AM 39.2°F4.0°C 31.6°F-0.2°C 74% Calm Calm -- 30.04 in1017.3 mb 0.00 in0.0 mm 0.00 in0.0 mm 0.00 in0.0 mm
04:14 AM 39.0°F3.9°C 31.5°F-0.3°C 74% Calm Calm -- 30.04 in1017.3 mb 0.00 in0.0 mm 0.00 in0.0 mm 0.00 in0.0 mm
04:19 AM 39.0°F3.9°C 31.5°F-0.3°C 74% 0.4 mph ENE0.6 kmh ENE 2.5 mph4.0 kmh 30.04 in1017.3 mb 0.00 in0.0 mm 0.00 in0.0 mm 0.00 in0.0 mm
04:24 AM 38.8°F3.8°C 30.9°F-0.6°C 73% 2.0 mph NNE3.2 kmh NNE 4.9 mph7.9 kmh 30.04 in1017.3 mb 0.00 in0.0 mm 0.00 in0.0 mm 0.00 in0.0 mm
04:29 AM 38.8°F3.8°C 30.9°F-0.6°C 73% 0.4 mph NE0.6 kmh NE 2.5 mph4.0 kmh 30.04 in1017.3 mb 0.00 in0.0 mm 0.00 in0.0 mm 0.00 in0.0 mm
04:34 AM 38.8°F3.8°C 30.9°F-0.6°C 73% 1.8 mph N2.9 kmh N 2.5 mph4.0 kmh 30.03 in1016.9 mb 0.00 in0.0 mm 0.00 in0.0 mm 0.00 in0.0 mm
04:39 AM 38.8°F3.8°C 30.9°F-0.6°C 73% Calm Calm -- 30.04 in1017.3 mb 0.00 in0.0 mm 0.00 in0.0 mm 0.00 in0.0 mm
04:44 AM 38.8°F3.8°C 30.9°F-0.6°C 73% 0.2 mph ESE0.3 kmh ESE 2.5 mph4.0 kmh 30.03 in1016.9 mb 0.00 in0.0 mm 0.00 in0.0 mm 0.00 in0.0 mm
04:49 AM 39.0°F3.9°C 30.7°F-0.7°C 72% 1.1 mph NE1.8 kmh NE 2.5 mph4.0 kmh 30.03 in1016.9 mb 0.00 in0.0 mm 0.00 in0.0 mm 0.00 in0.0 mm
04:54 AM 39.0°F3.9°C 30.7°F-0.7°C 72% 1.3 mph E2.1 kmh E 2.5 mph4.0 kmh 30.02 in1016.6 mb 0.00 in0.0 mm 0.00 in0.0 mm 0.00 in0.0 mm
04:59 AM 39.0°F3.9°C 30.7°F-0.7°C 72% 3.6 mph NE5.8 kmh NE 4.9 mph7.9 kmh 30.02 in1016.6 mb 0.00 in0.0 mm 0.00 in0.0 mm 0.00 in0.0 mm
05:04 AM 39.2°F4.0°C 30.9°F-0.6°C 72% 1.3 mph E2.1 kmh E 2.5 mph4.0 kmh 30.03 in1016.9 mb 0.00 in0.0 mm 0.00 in0.0 mm 0.00 in0.0 mm
05:09 AM 39.2°F4.0°C 30.9°F-0.6°C 72% 2.0 mph N3.2 kmh N 2.5 mph4.0 kmh 30.03 in1016.9 mb 0.00 in0.0 mm 0.00 in0.0 mm 0.00 in0.0 mm
05:14 AM 39.2°F4.0°C 30.9°F-0.6°C 72% 5.6 mph N9.0 kmh N 7.4 mph11.9 kmh 30.03 in1016.9 mb 0.00 in0.0 mm 0.00 in0.0 mm 0.00 in0.0 mm
05:19 AM 39.2°F4.0°C 30.6°F-0.8°C 71% 2.7 mph NNE4.3 kmh NNE 4.9 mph7.9 kmh 30.04 in1017.3 mb 0.00 in0.0 mm 0.00 in0.0 mm 0.00 in0.0 mm
05:24 AM 39.2°F4.0°C 30.6°F-0.8°C 71% 0.2 mph E0.3 kmh E 2.5 mph4.0 kmh 30.04 in1017.3 mb 0.00 in0.0 mm 0.00 in0.0 mm 0.00 in0.0 mm
05:29 AM 39.4°F4.1°C 30.7°F-0.7°C 71% 4.3 mph N6.9 kmh N 7.4 mph11.9 kmh 30.04 in1017.3 mb 0.00 in0.0 mm 0.00 in0.0 mm 0.00 in0.0 mm
05:34 AM 39.4°F4.1°C 30.7°F-0.7°C 71% 0.9 mph E1.4 kmh E 2.5 mph4.0 kmh 30.06 in1017.9 mb 0.00 in0.0 mm 0.00 in0.0 mm 0.00 in0.0 mm
05:39 AM 39.4°F4.1°C 30.7°F-0.7°C 71% 0.2 mph NE0.3 kmh NE 2.5 mph4.0 kmh 30.06 in1017.9 mb 0.00 in0.0 mm 0.00 in0.0 mm 0.00 in0.0 mm
05:44 AM 39.4°F4.1°C 30.7°F-0.7°C 71% 2.5 mph N4.0 kmh N 2.5 mph4.0 kmh 30.06 in1017.9 mb 0.00 in0.0 mm 0.00 in0.0 mm 0.00 in0.0 mm
05:49 AM 39.4°F4.1°C 30.7°F-0.7°C 71% Calm Calm -- 30.06 in1017.9 mb 0.00 in0.0 mm 0.00 in0.0 mm 0.00 in0.0 mm
05:54 AM 39.4°F4.1°C 31.1°F-0.5°C 72% Calm Calm -- 30.06 in1017.9 mb 0.00 in0.0 mm 0.00 in0.0 mm 0.00 in0.0 mm
05:59 AM 39.2°F4.0°C 30.9°F-0.6°C 72% Calm Calm -- 30.06 in1017.9 mb 0.00 in0.0 mm 0.00 in0.0 mm 0.00 in0.0 mm
06:04 AM 39.2°F4.0°C 30.9°F-0.6°C 72% 0.2 mph E0.3 kmh E 2.5 mph4.0 kmh 30.06 in1017.9 mb 0.00 in0.0 mm 0.00 in0.0 mm 0.00 in0.0 mm
06:09 AM 39.0°F3.9°C 30.7°F-0.7°C 72% Calm Calm -- 30.07 in1018.3 mb 0.00 in0.0 mm 0.00 in0.0 mm 0.00 in0.0 mm
06:14 AM 39.0°F3.9°C 30.7°F-0.7°C 72% 0.4 mph E0.6 kmh E 2.5 mph4.0 kmh 30.07 in1018.3 mb 0.00 in0.0 mm 0.00 in0.0 mm 0.00 in0.0 mm
06:19 AM 38.8°F3.8°C 30.6°F-0.8°C 72% 0.2 mph NE0.3 kmh NE 2.5 mph4.0 kmh 30.06 in1017.9 mb 0.00 in0.0 mm 0.00 in0.0 mm 0.00 in0.0 mm
06:24 AM 38.8°F3.8°C 30.6°F-0.8°C 72% 0.2 mph NE0.3 kmh NE 2.5 mph4.0 kmh 30.07 in1018.3 mb 0.00 in0.0 mm 0.00 in0.0 mm 0.00 in0.0 mm
06:29 AM 38.7°F3.7°C 30.4°F-0.9°C 72% Calm Calm -- 30.07 in1018.3 mb 0.00 in0.0 mm 0.00 in0.0 mm 0.00 in0.0 mm
06:34 AM 38.7°F3.7°C 30.4°F-0.9°C 72% Calm Calm -- 30.07 in1018.3 mb 0.00 in0.0 mm 0.00 in0.0 mm 0.00 in0.0 mm
06:39 AM 38.7°F3.7°C 30.4°F-0.9°C 72% Calm Calm -- 30.07 in1018.3 mb 0.00 in0.0 mm 0.00 in0.0 mm 0.00 in0.0 mm
06:44 AM 38.5°F3.6°C 30.6°F-0.8°C 73% Calm Calm -- 30.07 in1018.3 mb 0.00 in0.0 mm 0.00 in0.0 mm 0.00 in0.0 mm
06:49 AM 38.3°F3.5°C 30.4°F-0.9°C 73% Calm Calm -- 30.07 in1018.3 mb 0.00 in0.0 mm 0.00 in0.0 mm 0.00 in0.0 mm
06:54 AM 38.3°F3.5°C 30.4°F-0.9°C 73% Calm Calm -- 30.07 in1018.3 mb 0.00 in0.0 mm 0.00 in0.0 mm 0.00 in0.0 mm
06:59 AM 38.1°F3.4°C 30.2°F-1.0°C 73% 0.9 mph N1.4 kmh N 2.5 mph4.0 kmh 30.07 in1018.3 mb 0.00 in0.0 mm 0.00 in0.0 mm 0.00 in0.0 mm
07:04 AM 38.1°F3.4°C 30.2°F-1.0°C 73% Calm Calm -- 30.07 in1018.3 mb 0.00 in0.0 mm 0.00 in0.0 mm 0.00 in0.0 mm
07:09 AM 37.9°F3.3°C 30.0°F-1.1°C 73% 0.4 mph NE0.6 kmh NE 2.5 mph4.0 kmh 30.07 in1018.3 mb 0.00 in0.0 mm 0.00 in0.0 mm 0.00 in0.0 mm
07:14 AM 37.9°F3.3°C 30.4°F-0.9°C 74% 0.4 mph E0.6 kmh E 2.5 mph4.0 kmh 30.07 in1018.3 mb 0.00 in0.0 mm 0.00 in0.0 mm 0.00 in0.0 mm
07:19 AM 37.9°F3.3°C 30.4°F-0.9°C 74% 1.8 mph NE2.9 kmh NE 2.5 mph4.0 kmh 30.06 in1017.9 mb 0.00 in0.0 mm 0.00 in0.0 mm 0.00 in0.0 mm
07:24 AM 37.8°F3.2°C 30.2°F-1.0°C 74% Calm Calm -- 30.07 in1018.3 mb 0.00 in0.0 mm 0.00 in0.0 mm 0.00 in0.0 mm
07:29 AM 37.8°F3.2°C 30.2°F-1.0°C 74% 0.2 mph E0.3 kmh E 2.5 mph4.0 kmh 30.07 in1018.3 mb 0.00 in0.0 mm 0.00 in0.0 mm 0.00 in0.0 mm
07:34 AM 37.8°F3.2°C 29.8°F-1.2°C 73% 1.3 mph SE2.1 kmh SE 2.5 mph4.0 kmh 30.06 in1017.9 mb 0.00 in0.0 mm 0.00 in0.0 mm 0.00 in0.0 mm
07:39 AM 37.8°F3.2°C 30.2°F-1.0°C 74% 0.2 mph E0.3 kmh E 2.5 mph4.0 kmh 30.07 in1018.3 mb 0.00 in0.0 mm 0.00 in0.0 mm 0.00 in0.0 mm
07:44 AM 37.8°F3.2°C 30.2°F-1.0°C 74% Calm Calm -- 30.07 in1018.3 mb 0.00 in0.0 mm 0.00 in0.0 mm 0.00 in0.0 mm
07:49 AM 37.8°F3.2°C 30.2°F-1.0°C 74% Calm Calm -- 30.07 in1018.3 mb 0.00 in0.0 mm 0.00 in0.0 mm 0.00 in0.0 mm
07:54 AM 37.8°F3.2°C 30.2°F-1.0°C 74% 0.4 mph NE0.6 kmh NE 2.5 mph4.0 kmh 30.08 in1018.6 mb 0.00 in0.0 mm 0.00 in0.0 mm 0.00 in0.0 mm
07:59 AM 37.8°F3.2°C 30.2°F-1.0°C 74% Calm Calm -- 30.09 in1019.0 mb 0.00 in0.0 mm 0.00 in0.0 mm 0.00 in0.0 mm
08:04 AM 37.6°F3.1°C 30.4°F-0.9°C 75% Calm Calm -- 30.08 in1018.6 mb 0.00 in0.0 mm 0.00 in0.0 mm 0.00 in0.0 mm
08:09 AM 37.4°F3.0°C 30.2°F-1.0°C 75% Calm Calm -- 30.09 in1019.0 mb 0.00 in0.0 mm 0.00 in0.0 mm 0.00 in0.0 mm
08:14 AM 37.2°F2.9°C 30.0°F-1.1°C 75% Calm Calm -- 30.09 in1019.0 mb 0.00 in0.0 mm 0.00 in0.0 mm 0.00 in0.0 mm
08:19 AM 37.0°F2.8°C 29.8°F-1.2°C 75% Calm Calm -- 30.09 in1019.0 mb 0.00 in0.0 mm 0.00 in0.0 mm 0.00 in0.0 mm
08:24 AM 37.0°F2.8°C 29.8°F-1.2°C 75% Calm Calm -- 30.09 in1019.0 mb 0.00 in0.0 mm 0.00 in0.0 mm 0.00 in0.0 mm
08:29 AM 37.0°F2.8°C 29.8°F-1.2°C 75% Calm Calm -- 30.10 in1019.3 mb 0.00 in0.0 mm 0.00 in0.0 mm 0.00 in0.0 mm
08:34 AM 36.9°F2.7°C 29.7°F-1.3°C 75% 0.2 mph NE0.3 kmh NE 2.5 mph4.0 kmh 30.09 in1019.0 mb 0.00 in0.0 mm 0.00 in0.0 mm 0.00 in0.0 mm
08:39 AM 36.9°F2.7°C 30.0°F-1.1°C 76% Calm Calm -- 30.10 in1019.3 mb 0.00 in0.0 mm 0.00 in0.0 mm 0.00 in0.0 mm
08:44 AM 36.9°F2.7°C 30.0°F-1.1°C 76% 0.2 mph NE0.3 kmh NE 2.5 mph4.0 kmh 30.10 in1019.3 mb 0.00 in0.0 mm 0.00 in0.0 mm 0.00 in0.0 mm
08:49 AM 36.9°F2.7°C 30.0°F-1.1°C 76% Calm Calm -- 30.10 in1019.3 mb 0.00 in0.0 mm 0.00 in0.0 mm 0.00 in0.0 mm
08:54 AM 36.9°F2.7°C 29.7°F-1.3°C 75% 0.9 mph E1.4 kmh E 2.5 mph4.0 kmh 30.10 in1019.3 mb 0.00 in0.0 mm 0.00 in0.0 mm 0.00 in0.0 mm
08:59 AM 36.9°F2.7°C 29.3°F-1.5°C 74% Calm Calm -- 30.10 in1019.3 mb 0.00 in0.0 mm 0.00 in0.0 mm 0.00 in0.0 mm
09:04 AM 37.0°F2.8°C 29.1°F-1.6°C 73% 1.3 mph ENE2.1 kmh ENE 2.5 mph4.0 kmh 30.09 in1019.0 mb 0.00 in0.0 mm 0.00 in0.0 mm 0.00 in0.0 mm
09:09 AM 37.4°F3.0°C 29.3°F-1.5°C 72% Calm Calm -- 30.10 in1019.3 mb 0.00 in0.0 mm 0.00 in0.0 mm 0.00 in0.0 mm
09:14 AM 37.8°F3.2°C 29.3°F-1.5°C 71% 0.4 mph E0.6 kmh E 2.5 mph4.0 kmh 30.10 in1019.3 mb 0.00 in0.0 mm 0.00 in0.0 mm 0.00 in0.0 mm
09:19 AM 38.3°F3.5°C 29.7°F-1.3°C 71% 1.8 mph ENE2.9 kmh ENE 4.9 mph7.9 kmh 30.11 in1019.6 mb 0.00 in0.0 mm 0.00 in0.0 mm 0.00 in0.0 mm
09:24 AM 38.8°F3.8°C 29.8°F-1.2°C 70% 1.1 mph NE1.8 kmh NE 2.5 mph4.0 kmh 30.11 in1019.6 mb 0.00 in0.0 mm 0.00 in0.0 mm 0.00 in0.0 mm
09:29 AM 39.2°F4.0°C 29.8°F-1.2°C 69% 0.2 mph NE0.3 kmh NE 2.5 mph4.0 kmh 30.11 in1019.6 mb 0.00 in0.0 mm 0.00 in0.0 mm 0.00 in0.0 mm
09:34 AM 39.7°F4.3°C 30.4°F-0.9°C 69% 0.2 mph NE0.3 kmh NE 2.5 mph4.0 kmh 30.12 in1020.0 mb 0.00 in0.0 mm 0.00 in0.0 mm 0.00 in0.0 mm
09:39 AM 40.1°F4.5°C 30.4°F-0.9°C 68% 4.0 mph NNE6.4 kmh NNE 4.9 mph7.9 kmh 30.11 in1019.6 mb 0.00 in0.0 mm 0.00 in0.0 mm 0.00 in0.0 mm
09:44 AM 40.5°F4.7°C 30.7°F-0.7°C 68% 3.4 mph NNE5.5 kmh NNE 4.9 mph7.9 kmh 30.12 in1020.0 mb 0.00 in0.0 mm 0.00 in0.0 mm 0.00 in0.0 mm
09:49 AM 40.8°F4.9°C 30.7°F-0.7°C 67% 2.9 mph NNW4.7 kmh NNW 4.9 mph7.9 kmh 30.11 in1019.6 mb 0.00 in0.0 mm 0.00 in0.0 mm 0.00 in0.0 mm
09:54 AM 41.0°F5.0°C 30.9°F-0.6°C 67% 0.9 mph SE1.4 kmh SE 2.5 mph4.0 kmh 30.12 in1020.0 mb 0.00 in0.0 mm 0.00 in0.0 mm 0.00 in0.0 mm
09:59 AM 41.2°F5.1°C 30.7°F-0.7°C 66% 6.5 mph NE10.5 kmh NE 7.4 mph11.9 kmh 30.12 in1020.0 mb 0.00 in0.0 mm 0.00 in0.0 mm 0.00 in0.0 mm
10:04 AM 41.4°F5.2°C 30.9°F-0.6°C 66% 2.0 mph NNE3.2 kmh NNE 2.5 mph4.0 kmh 30.11 in1019.6 mb 0.00 in0.0 mm 0.00 in0.0 mm 0.00 in0.0 mm
10:09 AM 41.7°F5.4°C 30.9°F-0.6°C 65% 2.9 mph NNE4.7 kmh NNE 4.9 mph7.9 kmh 30.12 in1020.0 mb 0.00 in0.0 mm 0.00 in0.0 mm 0.00 in0.0 mm
10:14 AM 41.9°F5.5°C 31.1°F-0.5°C 65% 3.4 mph NNE5.5 kmh NNE 4.9 mph7.9 kmh 30.12 in1020.0 mb 0.00 in0.0 mm 0.00 in0.0 mm 0.00 in0.0 mm
10:19 AM 42.3°F5.7°C 30.9°F-0.6°C 64% 1.1 mph ENE1.8 kmh ENE 2.5 mph4.0 kmh 30.11 in1019.6 mb 0.00 in0.0 mm 0.00 in0.0 mm 0.00 in0.0 mm
10:24 AM 42.4°F5.8°C 31.1°F-0.5°C 64% 2.7 mph E4.3 kmh E 4.9 mph7.9 kmh 30.12 in1020.0 mb 0.00 in0.0 mm 0.00 in0.0 mm 0.00 in0.0 mm
10:29 AM 42.8°F6.0°C 31.1°F-0.5°C 63% Calm Calm -- 30.12 in1020.0 mb 0.00 in0.0 mm 0.00 in0.0 mm 0.00 in0.0 mm
10:34 AM 43.3°F6.3°C 31.3°F-0.4°C 62% 1.3 mph NE2.1 kmh NE 2.5 mph4.0 kmh 30.13 in1020.3 mb 0.00 in0.0 mm 0.00 in0.0 mm 0.00 in0.0 mm
10:39 AM 43.7°F6.5°C 31.6°F-0.2°C 62% 1.8 mph ENE2.9 kmh ENE 2.5 mph4.0 kmh 30.13 in1020.3 mb 0.00 in0.0 mm 0.00 in0.0 mm 0.00 in0.0 mm
10:44 AM 44.1°F6.7°C 31.8°F-0.1°C 62% 2.7 mph E4.3 kmh E 4.9 mph7.9 kmh 30.13 in1020.3 mb 0.00 in0.0 mm 0.00 in0.0 mm 0.00 in0.0 mm
10:49 AM 44.4°F6.9°C 31.5°F-0.3°C 60% 2.9 mph NE4.7 kmh NE 4.9 mph7.9 kmh 30.13 in1020.3 mb 0.00 in0.0 mm 0.00 in0.0 mm 0.00 in0.0 mm
10:54 AM 44.8°F7.1°C 31.3°F-0.4°C 59% 3.6 mph N5.8 kmh N 4.9 mph7.9 kmh 30.14 in1020.7 mb 0.00 in0.0 mm 0.00 in0.0 mm 0.00 in0.0 mm
10:59 AM 45.1°F7.3°C 31.6°F-0.2°C 59% 4.3 mph NNE6.9 kmh NNE 4.9 mph7.9 kmh 30.14 in1020.7 mb 0.00 in0.0 mm 0.00 in0.0 mm 0.00 in0.0 mm
11:04 AM 45.3°F7.4°C 32.4°F0.2°C 60% 0.2 mph ENE0.3 kmh ENE 2.5 mph4.0 kmh 30.14 in1020.7 mb 0.00 in0.0 mm 0.00 in0.0 mm 0.00 in0.0 mm
11:09 AM 45.7°F7.6°C 32.5°F0.3°C 60% 3.4 mph NE5.5 kmh NE 4.9 mph7.9 kmh 30.14 in1020.7 mb 0.00 in0.0 mm 0.00 in0.0 mm 0.00 in0.0 mm
11:14 AM 45.9°F7.7°C 32.0°F0.0°C 58% 1.3 mph E2.1 kmh E 2.5 mph4.0 kmh 30.14 in1020.7 mb 0.00 in0.0 mm 0.00 in0.0 mm 0.00 in0.0 mm
11:19 AM 46.2°F7.9°C 31.8°F-0.1°C 57% 2.0 mph E3.2 kmh E 4.9 mph7.9 kmh 30.15 in1021.0 mb 0.00 in0.0 mm 0.00 in0.0 mm 0.00 in0.0 mm
11:24 AM 46.6°F8.1°C 31.8°F-0.1°C 56% 1.3 mph ESE2.1 kmh ESE 2.5 mph4.0 kmh 30.14 in1020.7 mb 0.00 in0.0 mm 0.00 in0.0 mm 0.00 in0.0 mm
11:29 AM 46.9°F8.3°C 32.5°F0.3°C 57% 5.6 mph ENE9.0 kmh ENE 7.4 mph11.9 kmh 30.14 in1020.7 mb 0.00 in0.0 mm 0.00 in0.0 mm 0.00 in0.0 mm
11:34 AM 47.1°F8.4°C 32.2°F0.1°C 56% 3.6 mph ENE5.8 kmh ENE 4.9 mph7.9 kmh 30.15 in1021.0 mb 0.00 in0.0 mm 0.00 in0.0 mm 0.00 in0.0 mm
11:39 AM 47.5°F8.6°C 32.5°F0.3°C 56% 5.1 mph NW8.2 kmh NW 7.4 mph11.9 kmh 30.14 in1020.7 mb 0.00 in0.0 mm 0.00 in0.0 mm 0.00 in0.0 mm
11:44 AM 47.8°F8.8°C 32.9°F0.5°C 56% 3.4 mph NNE5.5 kmh NNE 4.9 mph7.9 kmh 30.15 in1021.0 mb 0.00 in0.0 mm 0.00 in0.0 mm 0.00 in0.0 mm
11:49 AM 48.0°F8.9°C 33.1°F0.6°C 56% 1.8 mph NE2.9 kmh NE 2.5 mph4.0 kmh 30.14 in1020.7 mb 0.00 in0.0 mm 0.00 in0.0 mm 0.00 in0.0 mm
11:54 AM 48.0°F8.9°C 33.1°F0.6°C 56% 0.2 mph E0.3 kmh E 2.5 mph4.0 kmh 30.14 in1020.7 mb 0.00 in0.0 mm 0.00 in0.0 mm 0.00 in0.0 mm
11:59 AM 48.2°F9.0°C 32.9°F0.5°C 55% 0.9 mph E1.4 kmh E 2.5 mph4.0 kmh 30.15 in1021.0 mb 0.00 in0.0 mm 0.00 in0.0 mm 0.00 in0.0 mm
12:04 PM 48.6°F9.2°C 32.2°F0.1°C 53% Calm Calm -- 30.14 in1020.7 mb 0.00 in0.0 mm 0.00 in0.0 mm 0.00 in0.0 mm
12:09 PM 48.7°F9.3°C 32.4°F0.2°C 53% 2.7 mph E4.3 kmh E 4.9 mph7.9 kmh 30.14 in1020.7 mb 0.00 in0.0 mm 0.00 in0.0 mm 0.00 in0.0 mm
12:14 PM 48.9°F9.4°C 32.5°F0.3°C 53% 4.0 mph E6.4 kmh E 4.9 mph7.9 kmh 30.14 in1020.7 mb 0.00 in0.0 mm 0.00 in0.0 mm 0.00 in0.0 mm
12:19 PM 49.1°F9.5°C 32.7°F0.4°C 53% 2.9 mph N4.7 kmh N 4.9 mph7.9 kmh 30.14 in1020.7 mb 0.00 in0.0 mm 0.00 in0.0 mm 0.00 in0.0 mm
12:24 PM 49.5°F9.7°C 33.1°F0.6°C 53% 1.8 mph ESE2.9 kmh ESE 2.5 mph4.0 kmh 30.14 in1020.7 mb 0.00 in0.0 mm 0.00 in0.0 mm 0.00 in0.0 mm
12:29 PM 49.8°F9.9°C 32.9°F0.5°C 52% 1.1 mph ESE1.8 kmh ESE 2.5 mph4.0 kmh 30.14 in1020.7 mb 0.00 in0.0 mm 0.00 in0.0 mm 0.00 in0.0 mm
12:34 PM 50.0°F10.0°C 32.5°F0.3°C 51% 2.5 mph N4.0 kmh N 4.9 mph7.9 kmh 30.13 in1020.3 mb 0.00 in0.0 mm 0.00 in0.0 mm 0.00 in0.0 mm
12:39 PM 50.2°F10.1°C 33.3°F0.7°C 52% 1.1 mph N1.8 kmh N 2.5 mph4.0 kmh 30.13 in1020.3 mb 0.00 in0.0 mm 0.00 in0.0 mm 0.00 in0.0 mm
12:44 PM 50.5°F10.3°C 33.1°F0.6°C 51% 1.1 mph ENE1.8 kmh ENE 2.5 mph4.0 kmh 30.13 in1020.3 mb 0.00 in0.0 mm 0.00 in0.0 mm 0.00 in0.0 mm
12:49 PM 50.9°F10.5°C 34.0°F1.1°C 52% 0.4 mph ENE0.6 kmh ENE 2.5 mph4.0 kmh 30.12 in1020.0 mb 0.00 in0.0 mm 0.00 in0.0 mm 0.00 in0.0 mm
12:54 PM 51.3°F10.7°C 33.8°F1.0°C 51% 1.8 mph NE2.9 kmh NE 2.5 mph4.0 kmh 30.11 in1019.6 mb 0.00 in0.0 mm 0.00 in0.0 mm 0.00 in0.0 mm
12:59 PM 51.6°F10.9°C 33.6°F0.9°C 50% 1.1 mph E1.8 kmh E 2.5 mph4.0 kmh 30.11 in1019.6 mb 0.00 in0.0 mm 0.00 in0.0 mm 0.00 in0.0 mm
01:04 PM 51.8°F11.0°C 33.8°F1.0°C 50% 0.4 mph NE0.6 kmh NE 2.5 mph4.0 kmh 30.11 in1019.6 mb 0.00 in0.0 mm 0.00 in0.0 mm 0.00 in0.0 mm
01:09 PM 52.0°F11.1°C 34.0°F1.1°C 50% 0.4 mph ESE0.6 kmh ESE 2.5 mph4.0 kmh 30.11 in1019.6 mb 0.00 in0.0 mm 0.00 in0.0 mm 0.00 in0.0 mm
01:14 PM 52.2°F11.2°C 34.2°F1.2°C 50% 1.3 mph ENE2.1 kmh ENE 2.5 mph4.0 kmh 30.11 in1019.6 mb 0.00 in0.0 mm 0.00 in0.0 mm 0.00 in0.0 mm
01:19 PM 52.3°F11.3°C 33.8°F1.0°C 49% 4.5 mph N7.2 kmh N 7.4 mph11.9 kmh 30.11 in1019.6 mb 0.00 in0.0 mm 0.00 in0.0 mm 0.00 in0.0 mm
01:24 PM 52.3°F11.3°C 34.3°F1.3°C 50% 0.4 mph E0.6 kmh E 2.5 mph4.0 kmh 30.10 in1019.3 mb 0.00 in0.0 mm 0.00 in0.0 mm 0.00 in0.0 mm
01:29 PM 52.3°F11.3°C 33.8°F1.0°C 49% 2.7 mph E4.3 kmh E 4.9 mph7.9 kmh 30.09 in1019.0 mb 0.00 in0.0 mm 0.00 in0.0 mm 0.00 in0.0 mm
01:34 PM 52.5°F11.4°C 33.4°F0.8°C 48% Calm Calm -- 30.09 in1019.0 mb 0.00 in0.0 mm 0.00 in0.0 mm 0.00 in0.0 mm
01:39 PM 52.5°F11.4°C 34.0°F1.1°C 49% 5.8 mph E9.3 kmh E 7.4 mph11.9 kmh 30.09 in1019.0 mb 0.00 in0.0 mm 0.00 in0.0 mm 0.00 in0.0 mm
01:44 PM 52.9°F11.6°C 33.8°F1.0°C 48% 0.4 mph E0.6 kmh E 2.5 mph4.0 kmh 30.09 in1019.0 mb 0.00 in0.0 mm 0.00 in0.0 mm 0.00 in0.0 mm
01:49 PM 52.9°F11.6°C 33.8°F1.0°C 48% 6.5 mph E10.5 kmh E 9.8 mph15.8 kmh 30.08 in1018.6 mb 0.00 in0.0 mm 0.00 in0.0 mm 0.00 in0.0 mm
01:54 PM 53.1°F11.7°C 34.5°F1.4°C 49% 2.5 mph ENE4.0 kmh ENE 4.9 mph7.9 kmh 30.08 in1018.6 mb 0.00 in0.0 mm 0.00 in0.0 mm 0.00 in0.0 mm
01:59 PM 53.2°F11.8°C 33.6°F0.9°C 47% 4.0 mph E6.4 kmh E 7.4 mph11.9 kmh 30.07 in1018.3 mb 0.00 in0.0 mm 0.00 in0.0 mm 0.00 in0.0 mm
02:04 PM 53.2°F11.8°C 33.6°F0.9°C 47% 0.4 mph E0.6 kmh E 2.5 mph4.0 kmh 30.08 in1018.6 mb 0.00 in0.0 mm 0.00 in0.0 mm 0.00 in0.0 mm
02:09 PM 53.4°F11.9°C 32.7°F0.4°C 45% 6.7 mph NNE10.8 kmh NNE 12.3 mph19.8 kmh 30.07 in1018.3 mb 0.00 in0.0 mm 0.00 in0.0 mm 0.00 in0.0 mm
02:14 PM 53.6°F12.0°C 32.7°F0.4°C 45% 2.5 mph NE4.0 kmh NE 2.5 mph4.0 kmh 30.07 in1018.3 mb 0.00 in0.0 mm 0.00 in0.0 mm 0.00 in0.0 mm
02:19 PM 53.8°F12.1°C 32.9°F0.5°C 45% 0.9 mph E1.4 kmh E 2.5 mph4.0 kmh 30.08 in1018.6 mb 0.00 in0.0 mm 0.00 in0.0 mm 0.00 in0.0 mm
02:24 PM 54.1°F12.3°C 32.7°F0.4°C 44% 3.6 mph E5.8 kmh E 4.9 mph7.9 kmh 30.07 in1018.3 mb 0.00 in0.0 mm 0.00 in0.0 mm 0.00 in0.0 mm
02:29 PM 54.3°F12.4°C 32.9°F0.5°C 44% 5.6 mph ESE9.0 kmh ESE 7.4 mph11.9 kmh 30.07 in1018.3 mb 0.00 in0.0 mm 0.00 in0.0 mm 0.00 in0.0 mm
02:34 PM 54.5°F12.5°C 34.2°F1.2°C 46% 0.2 mph E0.3 kmh E 2.5 mph4.0 kmh 30.06 in1017.9 mb 0.00 in0.0 mm 0.00 in0.0 mm 0.00 in0.0 mm
02:39 PM 54.5°F12.5°C 32.5°F0.3°C 43% 2.0 mph E3.2 kmh E 2.5 mph4.0 kmh 30.06 in1017.9 mb 0.00 in0.0 mm 0.00 in0.0 mm 0.00 in0.0 mm
02:44 PM 54.7°F12.6°C 32.7°F0.4°C 43% 5.6 mph N9.0 kmh N 7.4 mph11.9 kmh 30.06 in1017.9 mb 0.00 in0.0 mm 0.00 in0.0 mm 0.00 in0.0 mm
02:49 PM 54.7°F12.6°C 33.3°F0.7°C 44% 0.2 mph E0.3 kmh E 2.5 mph4.0 kmh 30.06 in1017.9 mb 0.00 in0.0 mm 0.00 in0.0 mm 0.00 in0.0 mm
02:54 PM 54.5°F12.5°C 33.1°F0.6°C 44% 1.8 mph NE2.9 kmh NE 2.5 mph4.0 kmh 30.06 in1017.9 mb 0.00 in0.0 mm 0.00 in0.0 mm 0.00 in0.0 mm
02:59 PM 54.7°F12.6°C 32.7°F0.4°C 43% 4.0 mph N6.4 kmh N 4.9 mph7.9 kmh 30.06 in1017.9 mb 0.00 in0.0 mm 0.00 in0.0 mm 0.00 in0.0 mm
03:04 PM 54.7°F12.6°C 33.8°F1.0°C 45% 6.0 mph E9.7 kmh E 7.4 mph11.9 kmh 30.05 in1017.6 mb 0.00 in0.0 mm 0.00 in0.0 mm 0.00 in0.0 mm
03:09 PM 54.7°F12.6°C 32.7°F0.4°C 43% 1.1 mph NE1.8 kmh NE 2.5 mph4.0 kmh 30.06 in1017.9 mb 0.00 in0.0 mm 0.00 in0.0 mm 0.00 in0.0 mm
03:14 PM 54.5°F12.5°C 32.5°F0.3°C 43% 2.5 mph NE4.0 kmh NE 4.9 mph7.9 kmh 30.06 in1017.9 mb 0.00 in0.0 mm 0.00 in0.0 mm 0.00 in0.0 mm
03:19 PM 54.9°F12.7°C 32.9°F0.5°C 43% 2.9 mph NE4.7 kmh NE 4.9 mph7.9 kmh 30.05 in1017.6 mb 0.00 in0.0 mm 0.00 in0.0 mm 0.00 in0.0 mm
03:24 PM 55.0°F12.8°C 31.8°F-0.1°C 41% 1.3 mph ENE2.1 kmh ENE 2.5 mph4.0 kmh 30.05 in1017.6 mb 0.00 in0.0 mm 0.00 in0.0 mm 0.00 in0.0 mm
03:29 PM 55.4°F13.0°C 32.7°F0.4°C 42% 1.3 mph SW2.1 kmh SW 2.5 mph4.0 kmh 30.05 in1017.6 mb 0.00 in0.0 mm 0.00 in0.0 mm 0.00 in0.0 mm
03:34 PM 55.6°F13.1°C 32.9°F0.5°C 42% 4.3 mph ENE6.9 kmh ENE 4.9 mph7.9 kmh 30.05 in1017.6 mb 0.00 in0.0 mm 0.00 in0.0 mm 0.00 in0.0 mm
03:39 PM 55.8°F13.2°C 33.6°F0.9°C 43% 1.1 mph NE1.8 kmh NE 2.5 mph4.0 kmh 30.05 in1017.6 mb 0.00 in0.0 mm 0.00 in0.0 mm 0.00 in0.0 mm
03:44 PM 56.1°F13.4°C 32.7°F0.4°C 41% 1.8 mph NNE2.9 kmh NNE 2.5 mph4.0 kmh 30.05 in1017.6 mb 0.00 in0.0 mm 0.00 in0.0 mm 0.00 in0.0 mm
03:49 PM 56.1°F13.4°C 33.4°F0.8°C 42% 0.2 mph E0.3 kmh E 2.5 mph4.0 kmh 30.04 in1017.3 mb 0.00 in0.0 mm 0.00 in0.0 mm 0.00 in0.0 mm
03:54 PM 55.9°F13.3°C 32.5°F0.3°C 41% 0.9 mph ENE1.4 kmh ENE 2.5 mph4.0 kmh 30.05 in1017.6 mb 0.00 in0.0 mm 0.00 in0.0 mm 0.00 in0.0 mm
03:59 PM 55.9°F13.3°C 32.5°F0.3°C 41% 6.0 mph NNE9.7 kmh NNE 7.4 mph11.9 kmh 30.05 in1017.6 mb 0.00 in0.0 mm 0.00 in0.0 mm 0.00 in0.0 mm
04:04 PM 55.9°F13.3°C 33.3°F0.7°C 42% 0.2 mph E0.3 kmh E 2.5 mph4.0 kmh 30.04 in1017.3 mb 0.00 in0.0 mm 0.00 in0.0 mm 0.00 in0.0 mm
04:09 PM 56.1°F13.4°C 32.2°F0.1°C 40% 1.8 mph ENE2.9 kmh ENE 4.9 mph7.9 kmh 30.04 in1017.3 mb 0.00 in0.0 mm 0.00 in0.0 mm 0.00 in0.0 mm
04:14 PM 56.1°F13.4°C 32.7°F0.4°C 41% 2.5 mph NE4.0 kmh NE 4.9 mph7.9 kmh 30.04 in1017.3 mb 0.00 in0.0 mm 0.00 in0.0 mm 0.00 in0.0 mm
04:19 PM 56.3°F13.5°C 32.9°F0.5°C 41% 2.0 mph E3.2 kmh E 2.5 mph4.0 kmh 30.04 in1017.3 mb 0.00 in0.0 mm 0.00 in0.0 mm 0.00 in0.0 mm
04:24 PM 56.3°F13.5°C 32.9°F0.5°C 41% 0.2 mph E0.3 kmh E 2.5 mph4.0 kmh 30.04 in1017.3 mb 0.00 in0.0 mm 0.00 in0.0 mm 0.00 in0.0 mm
04:29 PM 56.3°F13.5°C 32.9°F0.5°C 41% 3.6 mph E5.8 kmh E 4.9 mph7.9 kmh 30.04 in1017.3 mb 0.00 in0.0 mm 0.00 in0.0 mm 0.00 in0.0 mm
04:34 PM 56.3°F13.5°C 33.6°F0.9°C 42% Calm Calm -- 30.04 in1017.3 mb 0.00 in0.0 mm 0.00 in0.0 mm 0.00 in0.0 mm
04:39 PM 56.3°F13.5°C 33.6°F0.9°C 42% Calm Calm -- 30.04 in1017.3 mb 0.00 in0.0 mm 0.00 in0.0 mm 0.00 in0.0 mm
04:44 PM 56.1°F13.4°C 33.4°F0.8°C 42% 1.3 mph E2.1 kmh E 2.5 mph4.0 kmh 30.04 in1017.3 mb 0.00 in0.0 mm 0.00 in0.0 mm 0.00 in0.0 mm
04:49 PM 56.1°F13.4°C 32.7°F0.4°C 41% 2.5 mph NE4.0 kmh NE 2.5 mph4.0 kmh 30.04 in1017.3 mb 0.00 in0.0 mm 0.00 in0.0 mm 0.00 in0.0 mm
04:54 PM 56.1°F13.4°C 32.7°F0.4°C 41% 2.0 mph E3.2 kmh E 4.9 mph7.9 kmh 30.04 in1017.3 mb 0.00 in0.0 mm 0.00 in0.0 mm 0.00 in0.0 mm
04:59 PM 56.1°F13.4°C 33.4°F0.8°C 42% 2.9 mph E4.7 kmh E 4.9 mph7.9 kmh 30.04 in1017.3 mb 0.00 in0.0 mm 0.00 in0.0 mm 0.00 in0.0 mm
05:04 PM 56.3°F13.5°C 33.6°F0.9°C 42% 0.4 mph E0.6 kmh E 2.5 mph4.0 kmh 30.04 in1017.3 mb 0.00 in0.0 mm 0.00 in0.0 mm 0.00 in0.0 mm
05:09 PM 56.3°F13.5°C 32.9°F0.5°C 41% 2.0 mph NE3.2 kmh NE 2.5 mph4.0 kmh 30.04 in1017.3 mb 0.00 in0.0 mm 0.00 in0.0 mm 0.00 in0.0 mm
05:14 PM 56.3°F13.5°C 34.2°F1.2°C 43% 0.2 mph NE0.3 kmh NE 2.5 mph4.0 kmh 30.03 in1016.9 mb 0.00 in0.0 mm 0.00 in0.0 mm 0.00 in0.0 mm
05:19 PM 55.9°F13.3°C 34.3°F1.3°C 44% 1.1 mph E1.8 kmh E 2.5 mph4.0 kmh 30.03 in1016.9 mb 0.00 in0.0 mm 0.00 in0.0 mm 0.00 in0.0 mm
05:24 PM 55.4°F13.0°C 34.5°F1.4°C 45% 1.3 mph ENE2.1 kmh ENE 2.5 mph4.0 kmh 30.03 in1016.9 mb 0.00 in0.0 mm 0.00 in0.0 mm 0.00 in0.0 mm
05:29 PM 55.0°F12.8°C 34.7°F1.5°C 46% 2.7 mph NE4.3 kmh NE 4.9 mph7.9 kmh 30.04 in1017.3 mb 0.00 in0.0 mm 0.00 in0.0 mm 0.00 in0.0 mm
05:34 PM 54.5°F12.5°C 34.2°F1.2°C 46% Calm Calm -- 30.04 in1017.3 mb 0.00 in0.0 mm 0.00 in0.0 mm 0.00 in0.0 mm
05:39 PM 54.1°F12.3°C 33.8°F1.0°C 46% 0.4 mph N0.6 kmh N 2.5 mph4.0 kmh 30.04 in1017.3 mb 0.00 in0.0 mm 0.00 in0.0 mm 0.00 in0.0 mm
05:44 PM 54.0°F12.2°C 33.6°F0.9°C 46% 2.0 mph NE3.2 kmh NE 4.9 mph7.9 kmh 30.04 in1017.3 mb 0.00 in0.0 mm 0.00 in0.0 mm 0.00 in0.0 mm
05:49 PM 53.8°F12.1°C 34.0°F1.1°C 47% Calm Calm -- 30.04 in1017.3 mb 0.00 in0.0 mm 0.00 in0.0 mm 0.00 in0.0 mm
05:54 PM 53.8°F12.1°C 34.0°F1.1°C 47% Calm Calm -- 30.04 in1017.3 mb 0.00 in0.0 mm 0.00 in0.0 mm 0.00 in0.0 mm
05:59 PM 53.6°F12.0°C 34.3°F1.3°C 48% Calm Calm -- 30.05 in1017.6 mb 0.00 in0.0 mm 0.00 in0.0 mm 0.00 in0.0 mm
06:04 PM 53.6°F12.0°C 34.9°F1.6°C 49% 0.4 mph E0.6 kmh E 2.5 mph4.0 kmh 30.04 in1017.3 mb 0.00 in0.0 mm 0.00 in0.0 mm 0.00 in0.0 mm
06:09 PM 53.2°F11.8°C 34.5°F1.4°C 49% Calm Calm -- 30.05 in1017.6 mb 0.00 in0.0 mm 0.00 in0.0 mm 0.00 in0.0 mm
06:14 PM 53.1°F11.7°C 34.5°F1.4°C 49% Calm Calm -- 30.05 in1017.6 mb 0.00 in0.0 mm 0.00 in0.0 mm 0.00 in0.0 mm
06:19 PM 52.9°F11.6°C 34.7°F1.5°C 50% 0.9 mph E1.4 kmh E 2.5 mph4.0 kmh 30.05 in1017.6 mb 0.00 in0.0 mm 0.00 in0.0 mm 0.00 in0.0 mm
06:24 PM 52.7°F11.5°C 34.2°F1.2°C 49% Calm Calm -- 30.05 in1017.6 mb 0.00 in0.0 mm 0.00 in0.0 mm 0.00 in0.0 mm
06:29 PM 52.3°F11.3°C 34.7°F1.5°C 51% Calm Calm -- 30.05 in1017.6 mb 0.00 in0.0 mm 0.00 in0.0 mm 0.00 in0.0 mm
06:34 PM 52.2°F11.2°C 34.2°F1.2°C 50% 0.4 mph E0.6 kmh E 2.5 mph4.0 kmh 30.05 in1017.6 mb 0.00 in0.0 mm 0.00 in0.0 mm 0.00 in0.0 mm
06:39 PM 52.0°F11.1°C 34.5°F1.4°C 51% Calm Calm -- 30.05 in1017.6 mb 0.00 in0.0 mm 0.00 in0.0 mm 0.00 in0.0 mm
06:44 PM 51.8°F11.0°C 33.8°F1.0°C 50% Calm Calm -- 30.06 in1017.9 mb 0.00 in0.0 mm 0.00 in0.0 mm 0.00 in0.0 mm
06:49 PM 51.6°F10.9°C 33.6°F0.9°C 50% Calm Calm -- 30.06 in1017.9 mb 0.00 in0.0 mm 0.00 in0.0 mm 0.00 in0.0 mm
06:54 PM 51.4°F10.8°C 34.0°F1.1°C 51% Calm Calm -- 30.06 in1017.9 mb 0.00 in0.0 mm 0.00 in0.0 mm 0.00 in0.0 mm
06:59 PM 51.3°F10.7°C 33.8°F1.0°C 51% Calm Calm -- 30.06 in1017.9 mb 0.00 in0.0 mm 0.00 in0.0 mm 0.00 in0.0 mm
07:04 PM 51.1°F10.6°C 33.6°F0.9°C 51% Calm Calm -- 30.06 in1017.9 mb 0.00 in0.0 mm 0.00 in0.0 mm 0.00 in0.0 mm
07:09 PM 50.9°F10.5°C 34.0°F1.1°C 52% 0.4 mph E0.6 kmh E 2.5 mph4.0 kmh 30.06 in1017.9 mb 0.00 in0.0 mm 0.00 in0.0 mm 0.00 in0.0 mm
07:14 PM 50.7°F10.4°C 33.8°F1.0°C 52% 0.2 mph E0.3 kmh E 2.5 mph4.0 kmh 30.07 in1018.3 mb 0.00 in0.0 mm 0.00 in0.0 mm 0.00 in0.0 mm
07:19 PM 50.5°F10.3°C 33.6°F0.9°C 52% Calm Calm -- 30.07 in1018.3 mb 0.00 in0.0 mm 0.00 in0.0 mm 0.00 in0.0 mm
07:24 PM 50.5°F10.3°C 33.6°F0.9°C 52% Calm Calm -- 30.07 in1018.3 mb 0.00 in0.0 mm 0.00 in0.0 mm 0.00 in0.0 mm
07:29 PM 50.2°F10.1°C 33.3°F0.7°C 52% 2.0 mph ENE3.2 kmh ENE 2.5 mph4.0 kmh 30.08 in1018.6 mb 0.00 in0.0 mm 0.00 in0.0 mm 0.00 in0.0 mm
07:34 PM 50.2°F10.1°C 33.3°F0.7°C 52% 0.2 mph ENE0.3 kmh ENE 2.5 mph4.0 kmh 30.08 in1018.6 mb 0.00 in0.0 mm 0.00 in0.0 mm 0.00 in0.0 mm
07:39 PM 50.0°F10.0°C 33.6°F0.9°C 53% 0.4 mph ENE0.6 kmh ENE 2.5 mph4.0 kmh 30.08 in1018.6 mb 0.00 in0.0 mm 0.00 in0.0 mm 0.00 in0.0 mm
07:44 PM 49.8°F9.9°C 34.3°F1.3°C 55% Calm Calm -- 30.08 in1018.6 mb 0.00 in0.0 mm 0.00 in0.0 mm 0.00 in0.0 mm
07:49 PM 49.6°F9.8°C 34.7°F1.5°C 56% 0.2 mph E0.3 kmh E 2.5 mph4.0 kmh 30.08 in1018.6 mb 0.00 in0.0 mm 0.00 in0.0 mm 0.00 in0.0 mm
07:54 PM 49.5°F9.7°C 34.5°F1.4°C 56% Calm Calm -- 30.08 in1018.6 mb 0.00 in0.0 mm 0.00 in0.0 mm 0.00 in0.0 mm
07:59 PM 49.3°F9.6°C 34.3°F1.3°C 56% Calm Calm -- 30.08 in1018.6 mb 0.00 in0.0 mm 0.00 in0.0 mm 0.00 in0.0 mm
08:04 PM 48.9°F9.4°C 34.0°F1.1°C 56% 0.4 mph E0.6 kmh E 2.5 mph4.0 kmh 30.09 in1019.0 mb 0.00 in0.0 mm 0.00 in0.0 mm 0.00 in0.0 mm
08:09 PM 48.7°F9.3°C 33.8°F1.0°C 56% Calm Calm -- 30.09 in1019.0 mb 0.00 in0.0 mm 0.00 in0.0 mm 0.00 in0.0 mm
08:14 PM 48.6°F9.2°C 33.6°F0.9°C 56% Calm Calm -- 30.09 in1019.0 mb 0.00 in0.0 mm 0.00 in0.0 mm 0.00 in0.0 mm
08:19 PM 48.4°F9.1°C 33.8°F1.0°C 57% 2.0 mph E3.2 kmh E 2.5 mph4.0 kmh 30.10 in1019.3 mb 0.00 in0.0 mm 0.00 in0.0 mm 0.00 in0.0 mm
08:24 PM 48.2°F9.0°C 34.2°F1.2°C 58% Calm Calm -- 30.09 in1019.0 mb 0.00 in0.0 mm 0.00 in0.0 mm 0.00 in0.0 mm
08:29 PM 48.0°F8.9°C 34.0°F1.1°C 58% Calm Calm -- 30.10 in1019.3 mb 0.00 in0.0 mm 0.00 in0.0 mm 0.00 in0.0 mm
08:34 PM 47.8°F8.8°C 33.8°F1.0°C 58% Calm Calm -- 30.10 in1019.3 mb 0.00 in0.0 mm 0.00 in0.0 mm 0.00 in0.0 mm
08:39 PM 47.7°F8.7°C 33.6°F0.9°C 58% 0.9 mph ENE1.4 kmh ENE 2.5 mph4.0 kmh 30.10 in1019.3 mb 0.00 in0.0 mm 0.00 in0.0 mm 0.00 in0.0 mm
08:44 PM 47.5°F8.6°C 33.4°F0.8°C 58% 2.0 mph E3.2 kmh E 4.9 mph7.9 kmh 30.10 in1019.3 mb 0.00 in0.0 mm 0.00 in0.0 mm 0.00 in0.0 mm
08:49 PM 47.3°F8.5°C 33.3°F0.7°C 58% 1.1 mph NE1.8 kmh NE 2.5 mph4.0 kmh 30.10 in1019.3 mb 0.00 in0.0 mm 0.00 in0.0 mm 0.00 in0.0 mm
08:54 PM 47.1°F8.4°C 32.7°F0.4°C 57% 0.9 mph E1.4 kmh E 2.5 mph4.0 kmh 30.11 in1019.6 mb 0.00 in0.0 mm 0.00 in0.0 mm 0.00 in0.0 mm
08:59 PM 46.9°F8.3°C 32.5°F0.3°C 57% 1.8 mph ENE2.9 kmh ENE 2.5 mph4.0 kmh 30.10 in1019.3 mb 0.00 in0.0 mm 0.00 in0.0 mm 0.00 in0.0 mm
09:04 PM 46.9°F8.3°C 32.5°F0.3°C 57% Calm Calm -- 30.11 in1019.6 mb 0.00 in0.0 mm 0.00 in0.0 mm 0.00 in0.0 mm
09:09 PM 46.8°F8.2°C 32.7°F0.4°C 58% Calm Calm -- 30.11 in1019.6 mb 0.00 in0.0 mm 0.00 in0.0 mm 0.00 in0.0 mm
09:14 PM 46.8°F8.2°C 32.7°F0.4°C 58% 2.7 mph ENE4.3 kmh ENE 4.9 mph7.9 kmh 30.11 in1019.6 mb 0.00 in0.0 mm 0.00 in0.0 mm 0.00 in0.0 mm
09:19 PM 46.6°F8.1°C 32.5°F0.3°C 58% Calm Calm -- 30.11 in1019.6 mb 0.00 in0.0 mm 0.00 in0.0 mm 0.00 in0.0 mm
09:24 PM 46.4°F8.0°C 32.4°F0.2°C 58% 0.2 mph NE0.3 kmh NE 2.5 mph4.0 kmh 30.11 in1019.6 mb 0.00 in0.0 mm 0.00 in0.0 mm 0.00 in0.0 mm
09:29 PM 46.2°F7.9°C 32.4°F0.2°C 58% 0.2 mph ENE0.3 kmh ENE 2.5 mph4.0 kmh 30.11 in1019.6 mb 0.00 in0.0 mm 0.00 in0.0 mm 0.00 in0.0 mm
09:34 PM 46.2°F7.9°C 32.7°F0.4°C 59% 2.7 mph ENE4.3 kmh ENE 4.9 mph7.9 kmh 30.12 in1020.0 mb 0.00 in0.0 mm 0.00 in0.0 mm 0.00 in0.0 mm
09:39 PM 46.0°F7.8°C 32.2°F0.1°C 58% 1.8 mph ENE2.9 kmh ENE 2.5 mph4.0 kmh 30.12 in1020.0 mb 0.00 in0.0 mm 0.00 in0.0 mm 0.00 in0.0 mm
09:44 PM 46.0°F7.8°C 32.2°F0.1°C 58% Calm Calm -- 30.12 in1020.0 mb 0.00 in0.0 mm 0.00 in0.0 mm 0.00 in0.0 mm
09:49 PM 45.9°F7.7°C 32.4°F0.2°C 59% 0.9 mph ENE1.4 kmh ENE 2.5 mph4.0 kmh 30.12 in1020.0 mb 0.00 in0.0 mm 0.00 in0.0 mm 0.00 in0.0 mm
09:54 PM 45.9°F7.7°C 32.4°F0.2°C 59% Calm Calm -- 30.13 in1020.3 mb 0.00 in0.0 mm 0.00 in0.0 mm 0.00 in0.0 mm
09:59 PM 45.7°F7.6°C 32.2°F0.1°C 59% Calm Calm -- 30.12 in1020.0 mb 0.00 in0.0 mm 0.00 in0.0 mm 0.00 in0.0 mm
10:04 PM 45.7°F7.6°C 32.5°F0.3°C 60% Calm Calm -- 30.13 in1020.3 mb 0.00 in0.0 mm 0.00 in0.0 mm 0.00 in0.0 mm
10:09 PM 45.5°F7.5°C 32.4°F0.2°C 60% 1.8 mph E2.9 kmh E 2.5 mph4.0 kmh 30.13 in1020.3 mb 0.00 in0.0 mm 0.00 in0.0 mm 0.00 in0.0 mm
10:14 PM 45.3°F7.4°C 32.4°F0.2°C 60% Calm Calm -- 30.13 in1020.3 mb 0.00 in0.0 mm 0.00 in0.0 mm 0.00 in0.0 mm
10:19 PM 45.1°F7.3°C 32.5°F0.3°C 61% Calm Calm -- 30.13 in1020.3 mb 0.00 in0.0 mm 0.00 in0.0 mm 0.00 in0.0 mm
10:24 PM 45.1°F7.3°C 32.5°F0.3°C 61% 1.8 mph ENE2.9 kmh ENE 2.5 mph4.0 kmh 30.13 in1020.3 mb 0.00 in0.0 mm 0.00 in0.0 mm 0.00 in0.0 mm
10:29 PM 45.0°F7.2°C 32.0°F0.0°C 60% 2.0 mph ENE3.2 kmh ENE 2.5 mph4.0 kmh 30.14 in1020.7 mb 0.00 in0.0 mm 0.00 in0.0 mm 0.00 in0.0 mm
10:34 PM 44.8°F7.1°C 32.2°F0.1°C 61% 2.0 mph ENE3.2 kmh ENE 2.5 mph4.0 kmh 30.13 in1020.3 mb 0.00 in0.0 mm 0.00 in0.0 mm 0.00 in0.0 mm
10:39 PM 44.6°F7.0°C 32.0°F0.0°C 61% Calm Calm -- 30.14 in1020.7 mb 0.00 in0.0 mm 0.00 in0.0 mm 0.00 in0.0 mm
10:44 PM 44.6°F7.0°C 32.0°F0.0°C 61% 2.0 mph ENE3.2 kmh ENE 4.9 mph7.9 kmh 30.14 in1020.7 mb 0.00 in0.0 mm 0.00 in0.0 mm 0.00 in0.0 mm
10:49 PM 44.6°F7.0°C 32.0°F0.0°C 61% Calm Calm -- 30.14 in1020.7 mb 0.00 in0.0 mm 0.00 in0.0 mm 0.00 in0.0 mm
10:54 PM 44.4°F6.9°C 32.2°F0.1°C 62% Calm Calm -- 30.14 in1020.7 mb 0.00 in0.0 mm 0.00 in0.0 mm 0.00 in0.0 mm
10:59 PM 44.4°F6.9°C 32.7°F0.4°C 63% Calm Calm -- 30.14 in1020.7 mb 0.00 in0.0 mm 0.00 in0.0 mm 0.00 in0.0 mm
11:04 PM 44.2°F6.8°C 32.5°F0.3°C 63% Calm Calm -- 30.14 in1020.7 mb 0.00 in0.0 mm 0.00 in0.0 mm 0.00 in0.0 mm
11:09 PM 44.1°F6.7°C 32.4°F0.2°C 63% 1.3 mph E2.1 kmh E 2.5 mph4.0 kmh 30.15 in1021.0 mb 0.00 in0.0 mm 0.00 in0.0 mm 0.00 in0.0 mm
11:14 PM 43.9°F6.6°C 31.6°F-0.2°C 62% Calm Calm -- 30.15 in1021.0 mb 0.00 in0.0 mm 0.00 in0.0 mm 0.00 in0.0 mm
11:19 PM 43.7°F6.5°C 32.0°F0.0°C 63% 0.9 mph E1.4 kmh E 2.5 mph4.0 kmh 30.15 in1021.0 mb 0.00 in0.0 mm 0.00 in0.0 mm 0.00 in0.0 mm
11:24 PM 43.5°F6.4°C 31.5°F-0.3°C 62% Calm Calm -- 30.15 in1021.0 mb 0.00 in0.0 mm 0.00 in0.0 mm 0.00 in0.0 mm
11:29 PM 43.5°F6.4°C 31.5°F-0.3°C 62% Calm Calm -- 30.15 in1021.0 mb 0.00 in0.0 mm 0.00 in0.0 mm 0.00 in0.0 mm
11:34 PM 43.3°F6.3°C 31.6°F-0.2°C 63% Calm Calm -- 30.16 in1021.3 mb 0.00 in0.0 mm 0.00 in0.0 mm 0.00 in0.0 mm
11:39 PM 43.3°F6.3°C 31.6°F-0.2°C 63% Calm Calm -- 30.16 in1021.3 mb 0.00 in0.0 mm 0.00 in0.0 mm 0.00 in0.0 mm
11:44 PM 43.2°F6.2°C 31.5°F-0.3°C 63% Calm Calm -- 30.15 in1021.0 mb 0.00 in0.0 mm 0.00 in0.0 mm 0.00 in0.0 mm
11:49 PM 43.0°F6.1°C 31.6°F-0.2°C 64% 1.1 mph ENE1.8 kmh ENE 2.5 mph4.0 kmh 30.15 in1021.0 mb 0.00 in0.0 mm 0.00 in0.0 mm 0.00 in0.0 mm
11:54 PM 42.8°F6.0°C 31.5°F-0.3°C 64% 0.9 mph ENE1.4 kmh ENE 2.5 mph4.0 kmh 30.15 in1021.0 mb 0.00 in0.0 mm 0.00 in0.0 mm 0.00 in0.0 mm
11:59 PM 42.6°F5.9°C 31.3°F-0.4°C 64% Calm Calm -- 30.16 in1021.3 mb 0.00 in0.0 mm 0.00 in0.0 mm 0.00 in0.0 mm